sensor_id;sensor_type;location;lat;lon;timestamp;pressure;altitude;pressure_sealevel;temperature;humidity
23307;BME280;11822;52.470;10.688;2022-07-06T00:00:31;101505.47;;;18.65;48.80
23307;BME280;11822;52.470;10.688;2022-07-06T00:02:56;101499.16;;;18.65;48.70
23307;BME280;11822;52.470;10.688;2022-07-06T00:05:22;101499.50;;;18.63;48.86
23307;BME280;11822;52.470;10.688;2022-07-06T00:07:47;101500.69;;;18.62;48.88
23307;BME280;11822;52.470;10.688;2022-07-06T00:10:12;101502.22;;;18.59;49.07
23307;BME280;11822;52.470;10.688;2022-07-06T00:12:38;101505.78;;;18.60;49.38
23307;BME280;11822;52.470;10.688;2022-07-06T00:15:03;101508.06;;;18.54;49.11
23307;BME280;11822;52.470;10.688;2022-07-06T00:17:29;101510.78;;;18.51;49.24
23307;BME280;11822;52.470;10.688;2022-07-06T00:19:54;101516.22;;;18.47;49.50
23307;BME280;11822;52.470;10.688;2022-07-06T00:22:19;101510.25;;;18.45;49.16
23307;BME280;11822;52.470;10.688;2022-07-06T00:24:45;101510.53;;;18.40;49.78
23307;BME280;11822;52.470;10.688;2022-07-06T00:27:10;101503.72;;;18.34;49.48
23307;BME280;11822;52.470;10.688;2022-07-06T00:29:36;101508.00;;;18.31;49.86
23307;BME280;11822;52.470;10.688;2022-07-06T00:32:01;101509.53;;;18.28;49.82
23307;BME280;11822;52.470;10.688;2022-07-06T00:34:27;101504.38;;;18.27;49.93
23307;BME280;11822;52.470;10.688;2022-07-06T00:36:52;101510.06;;;18.34;49.71
23307;BME280;11822;52.470;10.688;2022-07-06T00:39:17;101509.69;;;18.36;49.39
23307;BME280;11822;52.470;10.688;2022-07-06T00:41:44;101509.69;;;18.36;49.42
23307;BME280;11822;52.470;10.688;2022-07-06T00:44:09;101508.94;;;18.39;49.39
23307;BME280;11822;52.470;10.688;2022-07-06T00:46:35;101507.47;;;18.45;49.08
23307;BME280;11822;52.470;10.688;2022-07-06T00:49:01;101495.69;;;18.48;49.25
23307;BME280;11822;52.470;10.688;2022-07-06T00:51:29;101509.94;;;18.50;48.86
23307;BME280;11822;52.470;10.688;2022-07-06T00:53:58;101507.63;;;18.52;48.96
23307;BME280;11822;52.470;10.688;2022-07-06T00:56:25;101506.84;;;18.52;49.00
23307;BME280;11822;52.470;10.688;2022-07-06T00:58:51;101507.28;;;18.54;48.67
23307;BME280;11822;52.470;10.688;2022-07-06T01:01:16;101511.56;;;18.51;48.75
23307;BME280;11822;52.470;10.688;2022-07-06T01:03:42;101500.50;;;18.51;48.73
23307;BME280;11822;52.470;10.688;2022-07-06T01:06:07;101502.38;;;18.47;49.30
23307;BME280;11822;52.470;10.688;2022-07-06T01:08:33;101500.34;;;18.44;49.14
23307;BME280;11822;52.470;10.688;2022-07-06T01:10:58;101496.72;;;18.40;49.25
23307;BME280;11822;52.470;10.688;2022-07-06T01:13:25;101500.16;;;18.33;49.14
23307;BME280;11822;52.470;10.688;2022-07-06T01:15:51;101501.66;;;18.30;49.26
23307;BME280;11822;52.470;10.688;2022-07-06T01:18:16;101499.91;;;18.22;49.52
23307;BME280;11822;52.470;10.688;2022-07-06T01:20:42;101505.03;;;18.20;49.54
23307;BME280;11822;52.470;10.688;2022-07-06T01:23:07;101506.19;;;18.19;49.59
23307;BME280;11822;52.470;10.688;2022-07-06T01:25:33;101500.59;;;18.15;49.68
23307;BME280;11822;52.470;10.688;2022-07-06T01:27:58;101495.41;;;18.14;49.63
23307;BME280;11822;52.470;10.688;2022-07-06T01:30:23;101485.16;;;18.14;49.74
23307;BME280;11822;52.470;10.688;2022-07-06T01:32:50;101487.13;;;18.14;49.67
23307;BME280;11822;52.470;10.688;2022-07-06T01:35:15;101487.13;;;18.14;49.65
23307;BME280;11822;52.470;10.688;2022-07-06T01:37:42;101493.03;;;18.12;49.96
23307;BME280;11822;52.470;10.688;2022-07-06T01:40:09;101492.16;;;18.08;49.94
23307;BME280;11822;52.470;10.688;2022-07-06T01:42:35;101494.91;;;18.08;49.72
23307;BME280;11822;52.470;10.688;2022-07-06T01:45:01;101493.75;;;18.09;50.23
23307;BME280;11822;52.470;10.688;2022-07-06T01:47:27;101491.41;;;18.11;50.32
23307;BME280;11822;52.470;10.688;2022-07-06T01:49:52;101498.56;;;18.12;49.71
23307;BME280;11822;52.470;10.688;2022-07-06T01:52:18;101491.03;;;18.13;49.59
23307;BME280;11822;52.470;10.688;2022-07-06T01:54:43;101490.25;;;18.12;49.64
23307;BME280;11822;52.470;10.688;2022-07-06T01:57:09;101488.28;;;18.13;49.59
23307;BME280;11822;52.470;10.688;2022-07-06T01:59:34;101491.41;;;18.11;49.42
23307;BME280;11822;52.470;10.688;2022-07-06T02:02:00;101493.03;;;18.12;49.68
23307;BME280;11822;52.470;10.688;2022-07-06T02:04:25;101483.91;;;18.12;49.62
23307;BME280;11822;52.470;10.688;2022-07-06T02:06:51;101485.94;;;18.15;49.63
23307;BME280;11822;52.470;10.688;2022-07-06T02:09:17;101485.50;;;18.13;49.62
23307;BME280;11822;52.470;10.688;2022-07-06T02:11:42;101485.59;;;18.16;49.32
23307;BME280;11822;52.470;10.688;2022-07-06T02:14:08;101496.94;;;18.11;49.37
23307;BME280;11822;52.470;10.688;2022-07-06T02:16:34;101490.25;;;18.12;49.21
23307;BME280;11822;52.470;10.688;2022-07-06T02:18:59;101495.34;;;18.10;49.32
23307;BME280;11822;52.470;10.688;2022-07-06T02:21:25;101488.66;;;18.11;49.75
23307;BME280;11822;52.470;10.688;2022-07-06T02:23:50;101493.47;;;18.14;49.74
23307;BME280;11822;52.470;10.688;2022-07-06T02:26:16;101491.13;;;18.16;49.59
23307;BME280;11822;52.470;10.688;2022-07-06T02:28:41;101489.59;;;18.19;49.73
23307;BME280;11822;52.470;10.688;2022-07-06T02:31:06;101492.34;;;18.19;49.76
23307;BME280;11822;52.470;10.688;2022-07-06T02:33:32;101493.09;;;18.16;49.42
23307;BME280;11822;52.470;10.688;2022-07-06T02:35:57;101488.72;;;18.15;49.28
23307;BME280;11822;52.470;10.688;2022-07-06T02:38:22;101487.50;;;18.12;49.71
23307;BME280;11822;52.470;10.688;2022-07-06T02:40:48;101493.81;;;18.13;49.51
23307;BME280;11822;52.470;10.688;2022-07-06T02:43:13;101496.50;;;18.09;49.36
23307;BME280;11822;52.470;10.688;2022-07-06T02:45:39;101494.56;;;18.10;49.35
23307;BME280;11822;52.470;10.688;2022-07-06T02:48:04;101498.91;;;18.11;49.63
23307;BME280;11822;52.470;10.688;2022-07-06T02:50:30;101498.56;;;18.12;49.44
23307;BME280;11822;52.470;10.688;2022-07-06T02:52:55;101491.00;;;18.09;49.52
23307;BME280;11822;52.470;10.688;2022-07-06T02:55:21;101498.06;;;18.07;49.76
23307;BME280;11822;52.470;10.688;2022-07-06T02:57:46;101496.47;;;18.06;49.88
23307;BME280;11822;52.470;10.688;2022-07-06T03:00:12;101488.16;;;18.06;49.69
23307;BME280;11822;52.470;10.688;2022-07-06T03:02:38;101477.81;;;18.02;50.05
23307;BME280;11822;52.470;10.688;2022-07-06T03:05:03;101488.16;;;18.06;49.98
23307;BME280;11822;52.470;10.688;2022-07-06T03:07:29;101492.88;;;18.05;50.03
23307;BME280;11822;52.470;10.688;2022-07-06T03:09:54;101483.78;;;18.05;50.04
23307;BME280;11822;52.470;10.688;2022-07-06T03:12:20;101488.50;;;18.04;49.80
23307;BME280;11822;52.470;10.688;2022-07-06T03:14:45;101503.88;;;18.01;49.80
23307;BME280;11822;52.470;10.688;2022-07-06T03:17:11;101501.09;;;18.01;50.07
23307;BME280;11822;52.470;10.688;2022-07-06T03:19:36;101501.47;;;18.00;50.22
23307;BME280;11822;52.470;10.688;2022-07-06T03:22:02;101496.75;;;18.00;49.87
23307;BME280;11822;52.470;10.688;2022-07-06T03:24:27;101504.56;;;17.98;49.94
23307;BME280;11822;52.470;10.688;2022-07-06T03:26:53;101507.97;;;17.92;49.86
23307;BME280;11822;52.470;10.688;2022-07-06T03:29:18;101512.25;;;17.89;50.16
23307;BME280;11822;52.470;10.688;2022-07-06T03:31:43;101511.09;;;17.90;50.27
23307;BME280;11822;52.470;10.688;2022-07-06T03:34:09;101507.91;;;17.88;50.13
23307;BME280;11822;52.470;10.688;2022-07-06T03:36:34;101503.09;;;17.85;50.08
23307;BME280;11822;52.470;10.688;2022-07-06T03:39:00;101505.47;;;17.86;50.45
23307;BME280;11822;52.470;10.688;2022-07-06T03:41:25;101506.31;;;17.87;50.33
23307;BME280;11822;52.470;10.688;2022-07-06T03:43:51;101508.19;;;17.83;50.53
23307;BME280;11822;52.470;10.688;2022-07-06T03:46:16;101503.09;;;17.85;50.19
23307;BME280;11822;52.470;10.688;2022-07-06T03:48:41;101501.50;;;17.84;50.49
23307;BME280;11822;52.470;10.688;2022-07-06T03:51:07;101503.81;;;17.82;50.35
23307;BME280;11822;52.470;10.688;2022-07-06T03:53:33;101504.88;;;17.77;50.48
23307;BME280;11822;52.470;10.688;2022-07-06T03:55:58;101498.91;;;17.75;50.70
23307;BME280;11822;52.470;10.688;2022-07-06T03:58:42;101500.44;;;17.72;50.74
23307;BME280;11822;52.470;10.688;2022-07-06T04:01:08;101506.75;;;17.73;50.60
23307;BME280;11822;52.470;10.688;2022-07-06T04:03:33;101512.38;;;17.77;50.49
23307;BME280;11822;52.470;10.688;2022-07-06T04:05:59;101516.38;;;17.79;50.62
23307;BME280;11822;52.470;10.688;2022-07-06T04:08:24;101511.72;;;17.83;50.68
23307;BME280;11822;52.470;10.688;2022-07-06T04:10:49;101513.72;;;17.83;50.76
23307;BME280;11822;52.470;10.688;2022-07-06T04:13:15;101514.22;;;17.88;50.60
23307;BME280;11822;52.470;10.688;2022-07-06T04:15:40;101522.59;;;17.92;50.54
23307;BME280;11822;52.470;10.688;2022-07-06T04:18:05;101525.81;;;17.94;50.26
23307;BME280;11822;52.470;10.688;2022-07-06T04:20:31;101519.56;;;17.97;50.34
23307;BME280;11822;52.470;10.688;2022-07-06T04:22:57;101523.66;;;18.04;50.15
23307;BME280;11822;52.470;10.688;2022-07-06T04:25:22;101518.19;;;18.07;50.29
23307;BME280;11822;52.470;10.688;2022-07-06T04:27:48;101524.59;;;18.11;50.13
23307;BME280;11822;52.470;10.688;2022-07-06T04:30:14;101526.69;;;18.18;50.28
23307;BME280;11822;52.470;10.688;2022-07-06T04:32:39;101528.31;;;18.19;50.06
23307;BME280;11822;52.470;10.688;2022-07-06T04:35:05;101527.22;;;18.24;50.16
23307;BME280;11822;52.470;10.688;2022-07-06T04:37:31;101518.19;;;18.27;50.08
23307;BME280;11822;52.470;10.688;2022-07-06T04:39:56;101525.78;;;18.30;49.93
23307;BME280;11822;52.470;10.688;2022-07-06T04:42:22;101532.53;;;18.33;50.10
23307;BME280;11822;52.470;10.688;2022-07-06T04:44:47;101521.91;;;18.35;49.95
23307;BME280;11822;52.470;10.688;2022-07-06T04:47:13;101527.44;;;18.35;49.87
23307;BME280;11822;52.470;10.688;2022-07-06T04:49:39;101540.47;;;18.34;49.99
23307;BME280;11822;52.470;10.688;2022-07-06T04:52:05;101523.50;;;18.36;49.79
23307;BME280;11822;52.470;10.688;2022-07-06T04:54:30;101523.59;;;18.39;49.79
23307;BME280;11822;52.470;10.688;2022-07-06T04:56:56;101525.53;;;18.39;49.63
23307;BME280;11822;52.470;10.688;2022-07-06T04:59:21;101524.91;;;18.45;49.43
23307;BME280;11822;52.470;10.688;2022-07-06T05:01:47;101523.66;;;18.43;49.72
23307;BME280;11822;52.470;10.688;2022-07-06T05:04:12;101520.81;;;18.39;49.46
23307;BME280;11822;52.470;10.688;2022-07-06T05:06:38;101517.53;;;18.34;49.82
23307;BME280;11822;52.470;10.688;2022-07-06T05:09:04;101525.03;;;18.33;49.81
23307;BME280;11822;52.470;10.688;2022-07-06T05:11:29;101524.16;;;18.29;49.98
23307;BME280;11822;52.470;10.688;2022-07-06T05:13:54;101517.47;;;18.30;50.28
23307;BME280;11822;52.470;10.688;2022-07-06T05:16:20;101516.66;;;18.29;49.83
23307;BME280;11822;52.470;10.688;2022-07-06T05:18:46;101519.06;;;18.31;49.91
23307;BME280;11822;52.470;10.688;2022-07-06T05:21:11;101523.78;;;18.30;50.05
23307;BME280;11822;52.470;10.688;2022-07-06T05:23:37;101526.41;;;18.23;49.79
23307;BME280;11822;52.470;10.688;2022-07-06T05:26:02;101525.53;;;18.19;50.31
23307;BME280;11822;52.470;10.688;2022-07-06T05:28:27;101528.25;;;18.15;50.54
23307;BME280;11822;52.470;10.688;2022-07-06T05:30:53;101530.28;;;18.19;50.10
23307;BME280;11822;52.470;10.688;2022-07-06T05:33:18;101524.81;;;18.22;50.42
23307;BME280;11822;52.470;10.688;2022-07-06T05:35:44;101525.25;;;18.24;50.52
23307;BME280;11822;52.470;10.688;2022-07-06T05:38:09;101524.53;;;18.27;50.36
23307;BME280;11822;52.470;10.688;2022-07-06T05:40:35;101527.00;;;18.33;50.25
23307;BME280;11822;52.470;10.688;2022-07-06T05:43:01;101529.91;;;18.40;50.09
23307;BME280;11822;52.470;10.688;2022-07-06T05:45:26;101535.88;;;18.42;50.05
23307;BME280;11822;52.470;10.688;2022-07-06T05:47:51;101532.47;;;18.49;50.13
23307;BME280;11822;52.470;10.688;2022-07-06T05:50:35;101529.75;;;18.52;49.83
23307;BME280;11822;52.470;10.688;2022-07-06T05:53:03;101534.19;;;18.57;49.99
23307;BME280;11822;52.470;10.688;2022-07-06T05:55:29;101531.94;;;18.63;49.94
23307;BME280;11822;52.470;10.688;2022-07-06T05:57:54;101524.97;;;18.72;49.43
23307;BME280;11822;52.470;10.688;2022-07-06T06:00:24;101537.88;;;18.84;49.96
23307;BME280;11822;52.470;10.688;2022-07-06T06:02:51;101535.38;;;18.99;49.28
23307;BME280;11822;52.470;10.688;2022-07-06T06:05:17;101537.59;;;19.13;49.21
23307;BME280;11822;52.470;10.688;2022-07-06T06:07:43;101537.75;;;19.24;48.60
23307;BME280;11822;52.470;10.688;2022-07-06T06:10:11;101535.53;;;19.33;48.49
23307;BME280;11822;52.470;10.688;2022-07-06T06:12:37;101537.47;;;19.56;47.94
23307;BME280;11822;52.470;10.688;2022-07-06T06:15:03;101540.50;;;19.74;47.32
23307;BME280;11822;52.470;10.688;2022-07-06T06:17:29;101540.69;;;19.88;46.94
23307;BME280;11822;52.470;10.688;2022-07-06T06:19:54;101540.97;;;20.06;46.17
23307;BME280;11822;52.470;10.688;2022-07-06T06:22:19;101542.38;;;20.23;45.76
23307;BME280;11822;52.470;10.688;2022-07-06T06:24:45;101540.16;;;20.40;45.15
23307;BME280;11822;52.470;10.688;2022-07-06T06:27:11;101539.47;;;20.47;44.85
23307;BME280;11822;52.470;10.688;2022-07-06T06:29:37;101539.91;;;20.52;44.10
23307;BME280;11822;52.470;10.688;2022-07-06T06:32:03;101543.94;;;20.55;44.35
23307;BME280;11822;52.470;10.688;2022-07-06T06:34:30;101545.59;;;20.63;43.93
23307;BME280;11822;52.470;10.688;2022-07-06T06:36:56;101541.31;;;20.70;43.54
23307;BME280;11822;52.470;10.688;2022-07-06T06:39:21;101539.38;;;20.74;43.63
23307;BME280;11822;52.470;10.688;2022-07-06T06:41:46;101541.44;;;20.80;43.57
23307;BME280;11822;52.470;10.688;2022-07-06T06:44:12;101539.09;;;20.86;43.43
23307;BME280;11822;52.470;10.688;2022-07-06T06:46:37;101539.09;;;20.86;43.10
23307;BME280;11822;52.470;10.688;2022-07-06T06:49:03;101539.91;;;20.87;42.83
23307;BME280;11822;52.470;10.688;2022-07-06T06:51:28;101549.78;;;20.84;42.79
23307;BME280;11822;52.470;10.688;2022-07-06T06:53:54;101552.56;;;20.84;42.93
23307;BME280;11822;52.470;10.688;2022-07-06T06:56:19;101546.16;;;20.80;42.63
23307;BME280;11822;52.470;10.688;2022-07-06T06:58:44;101545.81;;;20.81;43.17
23307;BME280;11822;52.470;10.688;2022-07-06T07:01:10;101541.94;;;20.93;43.12
23307;BME280;11822;52.470;10.688;2022-07-06T07:03:35;101550.81;;;21.06;42.84
23307;BME280;11822;52.470;10.688;2022-07-06T07:06:00;101554.41;;;21.10;42.81
23307;BME280;11822;52.470;10.688;2022-07-06T07:08:26;101559.91;;;21.07;42.76
23307;BME280;11822;52.470;10.688;2022-07-06T07:10:51;101566.66;;;21.06;42.68
23307;BME280;11822;52.470;10.688;2022-07-06T07:13:17;101560.31;;;21.05;42.84
23307;BME280;11822;52.470;10.688;2022-07-06T07:15:42;101570.25;;;21.10;42.98
23307;BME280;11822;52.470;10.688;2022-07-06T07:18:08;101566.38;;;21.18;42.78
23307;BME280;11822;52.470;10.688;2022-07-06T07:20:33;101573.19;;;21.28;42.76
23307;BME280;11822;52.470;10.688;2022-07-06T07:22:59;101570.41;;;21.28;42.28
23307;BME280;11822;52.470;10.688;2022-07-06T07:25:25;101574.84;;;21.33;42.35
23307;BME280;11822;52.470;10.688;2022-07-06T07:27:51;101570.47;;;21.32;42.39
23307;BME280;11822;52.470;10.688;2022-07-06T07:30:16;101574.91;;;21.44;41.97
23307;BME280;11822;52.470;10.688;2022-07-06T07:32:42;101578.56;;;21.55;41.75
23307;BME280;11822;52.470;10.688;2022-07-06T07:35:08;101576.25;;;21.61;41.23
23307;BME280;11822;52.470;10.688;2022-07-06T07:37:33;101574.31;;;21.68;41.61
23307;BME280;11822;52.470;10.688;2022-07-06T07:39:59;101577.53;;;21.74;41.20
23307;BME280;11822;52.470;10.688;2022-07-06T07:42:25;101573.56;;;21.75;41.00
23307;BME280;11822;52.470;10.688;2022-07-06T07:44:51;101576.38;;;21.82;41.06
23307;BME280;11822;52.470;10.688;2022-07-06T07:47:16;101577.63;;;21.89;40.96
23307;BME280;11822;52.470;10.688;2022-07-06T07:49:42;101578.13;;;22.05;40.19
23307;BME280;11822;52.470;10.688;2022-07-06T07:52:07;101581.75;;;22.17;39.59
23307;BME280;11822;52.470;10.688;2022-07-06T07:54:33;101582.56;;;22.21;38.98
23307;BME280;11822;52.470;10.688;2022-07-06T07:56:59;101588.16;;;22.28;38.87
23307;BME280;11822;52.470;10.688;2022-07-06T07:59:24;101586.19;;;22.36;38.64
23307;BME280;11822;52.470;10.688;2022-07-06T08:01:50;101589.00;;;22.39;38.20
23307;BME280;11822;52.470;10.688;2022-07-06T08:04:15;101586.63;;;22.41;37.94
23307;BME280;11822;52.470;10.688;2022-07-06T08:06:40;101577.47;;;22.41;38.21
23307;BME280;11822;52.470;10.688;2022-07-06T08:09:06;101582.28;;;22.44;37.62
23307;BME280;11822;52.470;10.688;2022-07-06T08:11:33;101581.03;;;22.38;37.67
23307;BME280;11822;52.470;10.688;2022-07-06T08:13:59;101593.38;;;22.40;38.07
23307;BME280;11822;52.470;10.688;2022-07-06T08:16:25;101593.75;;;22.35;37.83
23307;BME280;11822;52.470;10.688;2022-07-06T08:18:50;101592.94;;;22.31;37.94
23307;BME280;11822;52.470;10.688;2022-07-06T08:21:16;101587.72;;;22.22;37.67
23307;BME280;11822;52.470;10.688;2022-07-06T08:23:41;101589.72;;;22.22;38.08
23307;BME280;11822;52.470;10.688;2022-07-06T08:26:06;101583.38;;;22.28;38.26
23307;BME280;11822;52.470;10.688;2022-07-06T08:28:32;101586.63;;;22.41;38.03
23307;BME280;11822;52.470;10.688;2022-07-06T08:30:57;101586.66;;;22.45;37.89
23307;BME280;11822;52.470;10.688;2022-07-06T08:33:23;101580.72;;;22.47;37.86
23307;BME280;11822;52.470;10.688;2022-07-06T08:35:48;101589.47;;;22.49;37.46
23307;BME280;11822;52.470;10.688;2022-07-06T08:38:14;101587.47;;;22.46;37.66
23307;BME280;11822;52.470;10.688;2022-07-06T08:40:40;101598.53;;;22.38;37.92
23307;BME280;11822;52.470;10.688;2022-07-06T08:43:06;101584.97;;;22.29;38.00
23307;BME280;11822;52.470;10.688;2022-07-06T08:45:33;101590.50;;;22.22;38.27
23307;BME280;11822;52.470;10.688;2022-07-06T08:48:04;101592.88;;;22.17;38.33
23307;BME280;11822;52.470;10.688;2022-07-06T08:50:31;101586.91;;;22.14;38.26
23307;BME280;11822;52.470;10.688;2022-07-06T08:52:57;101592.88;;;22.17;38.44
23307;BME280;11822;52.470;10.688;2022-07-06T08:55:24;101593.66;;;22.17;38.22
23307;BME280;11822;52.470;10.688;2022-07-06T08:57:51;101587.72;;;22.19;38.15
23307;BME280;11822;52.470;10.688;2022-07-06T09:00:17;101590.88;;;22.17;38.08
23307;BME280;11822;52.470;10.688;2022-07-06T09:02:42;101581.78;;;22.24;38.23
23307;BME280;11822;52.470;10.688;2022-07-06T09:05:09;101582.63;;;22.39;37.96
23307;BME280;11822;52.470;10.688;2022-07-06T09:07:39;101583.91;;;22.49;38.17
23307;BME280;11822;52.470;10.688;2022-07-06T09:10:07;101578.38;;;22.67;37.56
23307;BME280;11822;52.470;10.688;2022-07-06T09:12:33;101570.84;;;22.78;37.41
23307;BME280;11822;52.470;10.688;2022-07-06T09:14:58;101570.47;;;22.87;37.19
23307;BME280;11822;52.470;10.688;2022-07-06T09:17:27;101574.44;;;22.93;36.43
23307;BME280;11822;52.470;10.688;2022-07-06T09:19:54;101586.78;;;22.92;35.51
23307;BME280;11822;52.470;10.688;2022-07-06T09:22:30;101574.84;;;22.88;35.82
23307;BME280;11822;52.470;10.688;2022-07-06T09:27:31;101580.34;;;22.66;35.50
23307;BME280;11822;52.470;10.688;2022-07-06T09:30:02;101577.16;;;22.57;36.07
23307;BME280;11822;52.470;10.688;2022-07-06T09:32:28;101576.75;;;22.62;35.69
23307;BME280;11822;52.470;10.688;2022-07-06T09:34:53;101578.00;;;22.83;35.04
23307;BME280;11822;52.470;10.688;2022-07-06T09:37:21;101576.03;;;22.94;34.90
23307;BME280;11822;52.470;10.688;2022-07-06T09:39:46;101584.00;;;23.03;34.06
23307;BME280;11822;52.470;10.688;2022-07-06T09:42:12;101579.22;;;23.07;34.43
23307;BME280;11822;52.470;10.688;2022-07-06T09:44:40;101573.25;;;23.20;33.79
23307;BME280;11822;52.470;10.688;2022-07-06T09:47:08;101566.91;;;23.41;33.75
23307;BME280;11822;52.470;10.688;2022-07-06T09:49:34;101572.88;;;23.57;33.05
23307;BME280;11822;52.470;10.688;2022-07-06T09:52:01;101575.25;;;23.77;33.30
23307;BME280;11822;52.470;10.688;2022-07-06T09:54:27;101565.25;;;23.90;32.75
23307;BME280;11822;52.470;10.688;2022-07-06T09:56:54;101565.63;;;24.03;32.30
23307;BME280;11822;52.470;10.688;2022-07-06T09:59:21;101561.25;;;24.06;32.24
23307;BME280;11822;52.470;10.688;2022-07-06T10:01:53;101566.00;;;23.98;32.28
23307;BME280;11822;52.470;10.688;2022-07-06T10:04:19;101566.03;;;23.95;32.22
23307;BME280;11822;52.470;10.688;2022-07-06T10:06:46;101570.41;;;23.92;32.05
23307;BME280;11822;52.470;10.688;2022-07-06T10:09:13;101568.41;;;23.89;32.55
23307;BME280;11822;52.470;10.688;2022-07-06T10:11:41;101565.66;;;23.85;32.33
23307;BME280;11822;52.470;10.688;2022-07-06T10:14:07;101586.78;;;23.79;32.43
23307;BME280;11822;52.470;10.688;2022-07-06T10:16:36;101571.25;;;23.71;32.47
23307;BME280;11822;52.470;10.688;2022-07-06T10:19:04;101574.06;;;23.71;32.23
23307;BME280;11822;52.470;10.688;2022-07-06T10:21:30;101568.09;;;23.72;32.36
23307;BME280;11822;52.470;10.688;2022-07-06T10:23:56;101562.09;;;23.74;32.03
23307;BME280;11822;52.470;10.688;2022-07-06T10:26:25;101574.06;;;23.74;32.53
23307;BME280;11822;52.470;10.688;2022-07-06T10:28:52;101565.69;;;23.74;32.00
23307;BME280;11822;52.470;10.688;2022-07-06T10:31:18;101584.00;;;23.72;32.31
23307;BME280;11822;52.470;10.688;2022-07-06T10:33:45;101572.47;;;23.70;31.87
23307;BME280;11822;52.470;10.688;2022-07-06T10:36:11;101576.84;;;23.74;31.81
23307;BME280;11822;52.470;10.688;2022-07-06T10:38:37;101570.06;;;23.79;31.83
23307;BME280;11822;52.470;10.688;2022-07-06T10:41:09;101569.63;;;23.88;31.77
23307;BME280;11822;52.470;10.688;2022-07-06T10:43:38;101567.63;;;23.96;31.77
23307;BME280;11822;52.470;10.688;2022-07-06T10:46:07;101574.38;;;24.09;31.36
23307;BME280;11822;52.470;10.688;2022-07-06T10:48:41;101567.59;;;24.14;31.84
23307;BME280;11822;52.470;10.688;2022-07-06T10:51:08;101577.53;;;24.18;31.37
23307;BME280;11822;52.470;10.688;2022-07-06T10:53:37;101577.94;;;24.17;31.31
23307;BME280;11822;52.470;10.688;2022-07-06T10:56:08;101567.59;;;24.10;31.35
23307;BME280;11822;52.470;10.688;2022-07-06T10:58:47;101565.22;;;24.09;31.65
23307;BME280;11822;52.470;10.688;2022-07-06T11:01:14;101565.59;;;24.11;31.76
23307;BME280;11822;52.470;10.688;2022-07-06T11:06:19;101561.59;;;24.23;31.98
23307;BME280;11822;52.470;10.688;2022-07-06T11:09:06;101560.72;;;24.33;32.46
23307;BME280;11822;52.470;10.688;2022-07-06T11:17:01;101563.84;;;24.42;31.99
23307;BME280;11822;52.470;10.688;2022-07-06T11:19:27;101562.69;;;24.40;32.16
23307;BME280;11822;52.470;10.688;2022-07-06T11:21:57;101557.50;;;24.42;31.66
23307;BME280;11822;52.470;10.688;2022-07-06T11:24:26;101566.25;;;24.40;31.58
23307;BME280;11822;52.470;10.688;2022-07-06T11:26:52;101558.38;;;24.28;32.11
23307;BME280;11822;52.470;10.688;2022-07-06T11:29:20;101563.16;;;24.20;31.99
23307;BME280;11822;52.470;10.688;2022-07-06T11:31:52;101560.38;;;24.20;32.10
23307;BME280;11822;52.470;10.688;2022-07-06T11:34:20;101565.94;;;24.27;32.17
23307;BME280;11822;52.470;10.688;2022-07-06T11:36:46;101560.34;;;24.27;32.06
23307;BME280;11822;52.470;10.688;2022-07-06T11:39:13;101557.59;;;24.24;32.05
23307;BME280;11822;52.470;10.688;2022-07-06T11:41:39;101548.81;;;24.22;31.54
23307;BME280;11822;52.470;10.688;2022-07-06T11:44:04;101556.81;;;24.19;31.90
23307;BME280;11822;52.470;10.688;2022-07-06T11:46:32;101556.81;;;24.16;31.60
23307;BME280;11822;52.470;10.688;2022-07-06T11:49:07;101553.22;;;24.19;31.90
23307;BME280;11822;52.470;10.688;2022-07-06T11:51:38;101552.41;;;24.22;31.73
23307;BME280;11822;52.470;10.688;2022-07-06T11:59:15;101551.09;;;24.45;32.11
23307;BME280;11822;52.470;10.688;2022-07-06T12:01:41;101553.06;;;24.48;32.04
23307;BME280;11822;52.470;10.688;2022-07-06T12:04:09;101546.69;;;24.51;31.71
23307;BME280;11822;52.470;10.688;2022-07-06T12:06:35;101546.25;;;24.56;31.18
23307;BME280;11822;52.470;10.688;2022-07-06T12:09:01;101538.66;;;24.60;30.49
23307;BME280;11822;52.470;10.688;2022-07-06T12:11:31;101538.59;;;24.64;29.80
23307;BME280;11822;52.470;10.688;2022-07-06T12:13:59;101540.19;;;24.69;29.67
23307;BME280;11822;52.470;10.688;2022-07-06T12:18:55;101535.31;;;24.80;30.06
23307;BME280;11822;52.470;10.688;2022-07-06T12:21:20;101546.50;;;24.80;30.12
23307;BME280;11822;52.470;10.688;2022-07-06T12:23:49;101529.41;;;24.67;30.69
23307;BME280;11822;52.470;10.688;2022-07-06T12:26:16;101543.41;;;24.60;31.53
23307;BME280;11822;52.470;10.688;2022-07-06T12:28:43;101540.28;;;24.54;31.71
23307;BME280;11822;52.470;10.688;2022-07-06T12:31:09;101538.25;;;24.55;31.69
23307;BME280;11822;52.470;10.688;2022-07-06T12:33:35;101536.75;;;24.43;31.38
23307;BME280;11822;52.470;10.688;2022-07-06T12:36:14;101535.66;;;24.26;31.50
23307;BME280;11822;52.470;10.688;2022-07-06T12:38:44;101536.06;;;24.17;31.43
23307;BME280;11822;52.470;10.688;2022-07-06T12:41:11;101538.09;;;24.09;31.02
23307;BME280;11822;52.470;10.688;2022-07-06T12:43:40;101538.50;;;24.08;30.55
23307;BME280;11822;52.470;10.688;2022-07-06T12:46:31;101534.13;;;24.07;30.47
23307;BME280;11822;52.470;10.688;2022-07-06T12:48:59;101543.31;;;23.93;30.13
23307;BME280;11822;52.470;10.688;2022-07-06T12:51:25;101544.56;;;23.81;30.17
23307;BME280;11822;52.470;10.688;2022-07-06T12:53:51;101533.00;;;23.79;30.53